createdAt,value
2018-01-28T00:00:07.046Z,5.40
2018-01-28T00:03:12.559Z,5.40
2018-01-28T00:06:17.797Z,5.50
2018-01-28T00:09:23.447Z,5.60
2018-01-28T00:12:29.578Z,5.80
2018-01-28T00:15:34.370Z,5.70
2018-01-28T00:18:40.553Z,5.80
2018-01-28T00:21:46.058Z,5.90
2018-01-28T00:24:52.638Z,5.90
2018-01-28T00:27:57.901Z,5.90
2018-01-28T00:31:04.346Z,6.00
2018-01-28T00:34:09.401Z,6.00
2018-01-28T00:37:15.018Z,6.00
2018-01-28T00:40:20.618Z,5.90
2018-01-28T00:43:26.769Z,5.90
2018-01-28T00:46:33.110Z,5.90
2018-01-28T00:49:39.675Z,5.80
2018-01-28T00:52:45.275Z,5.80
2018-01-28T00:55:51.161Z,5.80
2018-01-28T00:58:56.113Z,5.80
2018-01-28T01:02:01.106Z,5.80
2018-01-28T01:05:06.154Z,5.80
2018-01-28T01:08:12.138Z,5.80
2018-01-28T01:11:17.869Z,5.80
2018-01-28T01:14:22.781Z,5.80
2018-01-28T01:17:29.266Z,5.90
2018-01-28T01:20:35.666Z,6.00
2018-01-28T01:23:41.025Z,6.00
2018-01-28T01:26:46.037Z,6.00
2018-01-28T01:29:51.281Z,6.00
2018-01-28T01:32:56.066Z,6.10
2018-01-28T01:36:01.609Z,6.20
2018-01-28T01:39:07.233Z,6.10
2018-01-28T01:42:12.900Z,6.20
2018-01-28T01:45:18.948Z,6.20
2018-01-28T01:48:24.282Z,6.20
2018-01-28T01:51:29.326Z,6.20
2018-01-28T01:54:34.113Z,6.20
2018-01-28T01:57:40.198Z,6.20
2018-01-28T02:00:45.166Z,6.20
2018-01-28T02:03:51.692Z,6.20
2018-01-28T02:06:56.865Z,6.20
2018-01-28T02:10:02.139Z,6.10
2018-01-28T02:13:07.659Z,6.20
2018-01-28T02:16:13.989Z,6.10
2018-01-28T02:19:18.830Z,6.10
2018-01-28T02:22:24.757Z,6.00
2018-01-28T02:25:30.153Z,6.10
2018-01-28T02:28:35.300Z,6.10
2018-01-28T02:31:41.062Z,6.20
2018-01-28T02:34:46.725Z,6.20
2018-01-28T02:37:52.711Z,6.30
2018-01-28T02:40:58.892Z,6.30
2018-01-28T02:44:03.965Z,6.30
2018-01-28T02:47:09.425Z,6.20
2018-01-28T02:50:15.116Z,6.20
2018-01-28T02:53:21.281Z,6.30
2018-01-28T02:56:27.357Z,6.20
2018-01-28T02:59:32.194Z,6.10
2018-01-28T03:02:38.301Z,6.20
2018-01-28T03:05:44.117Z,6.10
2018-01-28T03:08:49.702Z,6.10
2018-01-28T03:11:55.841Z,6.00
2018-01-28T03:15:01.581Z,6.00
2018-01-28T03:18:06.746Z,6.00
2018-01-28T03:21:11.838Z,6.00
2018-01-28T03:24:18.229Z,6.10
2018-01-28T03:27:23.610Z,6.00
2018-01-28T03:30:28.783Z,6.10
2018-01-28T03:33:34.966Z,6.00
2018-01-28T03:36:40.786Z,6.00
2018-01-28T03:39:46.551Z,6.00
2018-01-28T03:42:52.401Z,6.10
2018-01-28T03:45:57.193Z,6.10
2018-01-28T03:49:02.765Z,6.10
2018-01-28T03:52:08.553Z,6.10
2018-01-28T03:55:14.526Z,6.10
2018-01-28T03:58:20.345Z,6.10
2018-01-28T04:01:26.018Z,6.10
2018-01-28T04:04:31.550Z,6.10
2018-01-28T04:07:36.994Z,6.10
2018-01-28T04:10:41.916Z,6.10
2018-01-28T04:13:46.921Z,6.10
2018-01-28T04:16:51.717Z,6.10
2018-01-28T04:19:56.629Z,6.10
2018-01-28T04:23:02.217Z,6.10
2018-01-28T04:26:08.137Z,6.10
2018-01-28T04:29:12.997Z,6.10
2018-01-28T04:32:18.333Z,6.20
2018-01-28T04:35:24.485Z,6.20
2018-01-28T04:38:29.801Z,6.10
2018-01-28T04:41:35.102Z,6.20
2018-01-28T04:44:40.709Z,6.20
2018-01-28T04:47:45.961Z,6.30
2018-01-28T04:50:51.706Z,6.20
2018-01-28T04:53:57.426Z,6.30
2018-01-28T04:57:02.621Z,6.30
2018-01-28T05:00:07.689Z,6.40
2018-01-28T05:03:14.106Z,6.40
2018-01-28T05:06:19.037Z,6.40
2018-01-28T05:09:24.173Z,6.40
2018-01-28T05:12:29.616Z,6.40
2018-01-28T05:15:34.788Z,6.40
2018-01-28T05:18:41.169Z,6.40
2018-01-28T05:21:46.071Z,6.40
2018-01-28T05:24:51.633Z,6.50
2018-01-28T05:27:56.437Z,6.50
2018-01-28T05:31:02.206Z,6.50
2018-01-28T05:34:07.764Z,6.50
2018-01-28T05:37:13.478Z,6.50
2018-01-28T05:40:18.993Z,6.50
2018-01-28T05:43:25.354Z,6.50
2018-01-28T05:46:31.833Z,6.50
2018-01-28T05:49:38.101Z,6.50
2018-01-28T05:52:44.020Z,6.50
2018-01-28T05:55:49.634Z,6.50
2018-01-28T05:58:55.230Z,6.50
2018-01-28T06:02:00.853Z,6.60
2018-01-28T06:05:06.026Z,6.60
2018-01-28T06:08:11.293Z,6.60
2018-01-28T06:11:16.622Z,6.60
2018-01-28T06:14:21.737Z,6.50
2018-01-28T06:17:28.190Z,6.60
2018-01-28T06:20:33.893Z,6.60
2018-01-28T06:23:39.210Z,6.60
2018-01-28T06:26:44.873Z,6.50
2018-01-28T06:29:49.800Z,6.60
2018-01-28T06:32:56.105Z,6.60
2018-01-28T06:36:01.574Z,6.60
2018-01-28T06:39:06.610Z,6.60
2018-01-28T06:42:13.318Z,6.60
2018-01-28T06:45:18.960Z,6.60
2018-01-28T06:48:24.049Z,6.60
2018-01-28T06:51:29.938Z,6.70
2018-01-28T06:54:35.829Z,6.70
2018-01-28T06:57:41.347Z,6.70
2018-01-28T07:00:47.105Z,6.60
2018-01-28T07:03:53.026Z,6.60
2018-01-28T07:06:58.275Z,6.60
2018-01-28T07:10:04.045Z,6.70
2018-01-28T07:13:09.069Z,6.60
2018-01-28T07:16:14.302Z,6.70
2018-01-28T07:19:20.037Z,6.70
2018-01-28T07:22:25.778Z,6.70
2018-01-28T07:25:31.145Z,6.70
2018-01-28T07:28:37.260Z,6.70
2018-01-28T07:31:42.395Z,6.70
2018-01-28T07:34:48.920Z,6.70
2018-01-28T07:37:54.609Z,6.70
2018-01-28T07:40:59.922Z,6.70
2018-01-28T07:44:05.630Z,6.60
2018-01-28T07:47:11.400Z,6.70
2018-01-28T07:50:16.869Z,6.70
2018-01-28T07:53:21.793Z,6.70
2018-01-28T07:56:27.370Z,6.80
2018-01-28T07:59:32.408Z,6.70
2018-01-28T08:02:37.919Z,6.80
2018-01-28T08:05:43.569Z,6.80
2018-01-28T08:08:49.851Z,6.90
2018-01-28T08:11:55.905Z,6.90
2018-01-28T08:15:01.148Z,6.90
2018-01-28T08:18:06.768Z,7.00
2018-01-28T08:21:12.421Z,7.00
2018-01-28T08:24:18.071Z,6.90
2018-01-28T08:27:24.178Z,7.00
2018-01-28T08:30:29.777Z,7.00
2018-01-28T08:33:34.873Z,7.00
2018-01-28T08:36:41.009Z,7.00
2018-01-28T08:39:46.086Z,7.00
2018-01-28T08:42:51.653Z,7.10
2018-01-28T08:45:56.841Z,7.10
2018-01-28T08:49:02.110Z,7.10
2018-01-28T08:52:07.129Z,7.20
2018-01-28T08:55:12.396Z,7.30
2018-01-28T08:58:17.542Z,7.00
2018-01-28T09:01:23.259Z,7.00
2018-01-28T09:04:29.217Z,6.90
2018-01-28T09:07:34.097Z,6.90
2018-01-28T09:10:39.694Z,7.00
2018-01-28T09:13:44.976Z,7.00
2018-01-28T09:16:51.053Z,7.00
2018-01-28T09:19:56.666Z,7.00
2018-01-28T09:23:02.898Z,6.90
2018-01-28T09:26:07.964Z,6.90
2018-01-28T09:29:16.059Z,6.90
2018-01-28T09:32:21.451Z,7.00
2018-01-28T09:35:27.130Z,7.00
2018-01-28T09:38:33.601Z,7.00
2018-01-28T09:41:38.614Z,7.00
2018-01-28T09:44:43.434Z,7.00
2018-01-28T09:47:48.541Z,7.20
2018-01-28T09:50:54.000Z,7.20
2018-01-28T09:54:00.062Z,7.10
2018-01-28T09:57:05.761Z,7.10
2018-01-28T10:00:11.393Z,7.20
2018-01-28T10:03:17.377Z,7.20
2018-01-28T10:06:22.993Z,7.20
2018-01-28T10:09:28.214Z,7.20
2018-01-28T10:12:33.687Z,7.10
2018-01-28T10:15:40.060Z,7.40
2018-01-28T10:18:45.625Z,7.30
2018-01-28T10:21:52.006Z,7.10
2018-01-28T10:24:57.554Z,7.10
2018-01-28T10:28:02.665Z,7.10
2018-01-28T10:31:08.295Z,7.30
2018-01-28T10:34:14.369Z,7.30
2018-01-28T10:37:19.938Z,7.20
2018-01-28T10:40:25.657Z,7.20
2018-01-28T10:43:30.457Z,7.20
2018-01-28T10:46:35.857Z,7.20
2018-01-28T10:49:42.041Z,7.30
2018-01-28T10:52:47.729Z,7.30
2018-01-28T10:55:52.613Z,7.30
2018-01-28T10:58:58.333Z,7.30
2018-01-28T11:02:03.500Z,7.40
2018-01-28T11:05:09.267Z,7.60
2018-01-28T11:08:15.785Z,7.60
2018-01-28T11:11:21.048Z,7.60
2018-01-28T11:14:26.262Z,7.70
2018-01-28T11:17:32.782Z,7.90
2018-01-28T11:20:39.499Z,8.00
2018-01-28T11:23:44.818Z,8.00
2018-01-28T11:26:49.671Z,8.10
2018-01-28T11:29:54.831Z,8.10
2018-01-28T11:32:59.789Z,8.00
2018-01-28T11:36:04.872Z,7.80
2018-01-28T11:39:11.577Z,7.60
2018-01-28T11:42:16.529Z,7.60
2018-01-28T11:45:22.777Z,7.70
2018-01-28T11:48:28.797Z,7.70
2018-01-28T11:51:35.321Z,7.80
2018-01-28T11:54:41.922Z,7.70
2018-01-28T11:57:47.682Z,7.70
2018-01-28T12:00:54.017Z,7.90
2018-01-28T12:04:00.066Z,7.80
2018-01-28T12:07:05.544Z,7.80
2018-01-28T12:10:11.461Z,7.70
2018-01-28T12:13:16.758Z,7.60
2018-01-28T12:16:23.146Z,7.60
2018-01-28T12:19:28.216Z,7.50
2018-01-28T12:22:34.010Z,7.70
2018-01-28T12:25:40.011Z,7.60
2018-01-28T12:28:45.166Z,7.80
2018-01-28T12:31:50.739Z,7.80
2018-01-28T12:34:57.711Z,8.00
2018-01-28T12:38:03.042Z,8.00
2018-01-28T12:41:08.230Z,8.10
2018-01-28T12:44:14.221Z,8.00
2018-01-28T12:47:19.257Z,7.90
2018-01-28T12:50:25.122Z,8.00
2018-01-28T12:53:30.371Z,8.00
2018-01-28T12:56:42.097Z,8.00
2018-01-28T12:59:47.958Z,8.00
2018-01-28T13:02:53.450Z,8.00
2018-01-28T13:05:59.125Z,7.80
2018-01-28T13:09:04.421Z,7.80
2018-01-28T13:12:10.065Z,7.80
2018-01-28T13:15:16.095Z,7.80
2018-01-28T13:18:21.441Z,7.70
2018-01-28T13:21:27.250Z,7.80
2018-01-28T13:24:32.832Z,7.90
2018-01-28T13:27:39.277Z,7.80
2018-01-28T13:30:46.201Z,7.70
2018-01-28T13:33:52.266Z,7.70
2018-01-28T13:36:58.587Z,7.70
2018-01-28T13:40:03.735Z,7.70
2018-01-28T13:43:09.639Z,7.80
2018-01-28T13:46:17.330Z,7.90
2018-01-28T13:49:24.246Z,7.90
2018-01-28T13:52:30.451Z,7.80
2018-01-28T13:55:35.808Z,7.80
2018-01-28T13:58:43.349Z,8.00
2018-01-28T14:01:48.924Z,8.00
2018-01-28T14:04:53.899Z,8.00
2018-01-28T14:07:58.946Z,8.10
2018-01-28T14:11:06.034Z,8.10
2018-01-28T14:14:11.350Z,8.10
2018-01-28T14:17:16.290Z,8.00
2018-01-28T14:20:21.745Z,8.00
2018-01-28T14:23:26.890Z,8.00
2018-01-28T14:26:32.118Z,8.10
2018-01-28T14:29:37.946Z,8.10
2018-01-28T14:32:43.209Z,8.10
2018-01-28T14:35:49.426Z,8.10
2018-01-28T14:38:55.662Z,8.00
2018-01-28T14:42:01.154Z,8.00
2018-01-28T14:45:06.290Z,8.00
2018-01-28T14:48:12.642Z,7.90
2018-01-28T14:51:18.265Z,7.80
2018-01-28T14:54:23.772Z,7.80
2018-01-28T14:57:29.105Z,7.80
2018-01-28T15:00:36.507Z,7.80
2018-01-28T15:03:42.290Z,7.80
2018-01-28T15:06:47.230Z,7.80
2018-01-28T15:09:54.661Z,7.80
2018-01-28T15:13:00.234Z,7.80
2018-01-28T15:16:06.155Z,7.80
2018-01-28T15:19:11.494Z,7.80
2018-01-28T15:22:16.342Z,7.80
2018-01-28T15:25:22.045Z,7.90
2018-01-28T15:28:27.200Z,7.90
2018-01-28T15:31:32.415Z,7.80
2018-01-28T15:34:39.477Z,7.80
2018-01-28T15:37:45.734Z,7.80
2018-01-28T15:40:50.929Z,7.90
2018-01-28T15:43:57.073Z,7.90
2018-01-28T15:47:03.986Z,7.90
2018-01-28T15:50:09.709Z,8.00
2018-01-28T15:53:14.737Z,8.00
2018-01-28T15:56:19.745Z,8.00
2018-01-28T15:59:24.970Z,8.00
2018-01-28T16:02:30.320Z,8.00
2018-01-28T16:05:37.242Z,8.00
2018-01-28T16:08:44.433Z,8.10
2018-01-28T16:11:49.732Z,8.10
2018-01-28T16:14:56.213Z,8.10
2018-01-28T16:18:02.922Z,8.10
2018-01-28T16:21:08.802Z,8.10
2018-01-28T16:24:15.006Z,8.10
2018-01-28T16:27:22.594Z,8.10
2018-01-28T16:30:27.725Z,8.10
2018-01-28T16:33:34.457Z,8.10
2018-01-28T16:36:39.484Z,8.10
2018-01-28T16:39:44.236Z,8.10
2018-01-28T16:42:49.424Z,8.10
2018-01-28T16:45:55.448Z,8.10
2018-01-28T16:49:02.198Z,8.10
2018-01-28T16:52:08.195Z,8.00
2018-01-28T16:55:14.819Z,8.10
2018-01-28T16:58:20.131Z,8.10
2018-01-28T17:01:25.073Z,8.20
2018-01-28T17:04:31.134Z,8.20
2018-01-28T17:07:35.946Z,8.20
2018-01-28T17:10:41.993Z,8.20
2018-01-28T17:13:48.299Z,8.30
2018-01-28T17:16:53.569Z,8.30
2018-01-28T17:19:59.390Z,8.40
2018-01-28T17:23:04.486Z,8.30
2018-01-28T17:26:10.169Z,8.20
2018-01-28T17:29:16.642Z,8.20
2018-01-28T17:32:21.991Z,8.20
2018-01-28T17:35:32.917Z,8.20
2018-01-28T17:38:39.102Z,8.20
2018-01-28T17:41:45.958Z,8.30
2018-01-28T17:44:52.470Z,8.30
2018-01-28T17:47:58.301Z,8.30
2018-01-28T17:51:03.697Z,8.30
2018-01-28T17:54:09.579Z,8.20
2018-01-28T17:57:17.882Z,8.20
2018-01-28T18:00:24.316Z,8.20
2018-01-28T18:03:31.028Z,8.10
2018-01-28T18:06:35.933Z,8.10
2018-01-28T18:09:41.129Z,8.10
2018-01-28T18:12:45.986Z,8.00
2018-01-28T18:15:51.262Z,8.10
2018-01-28T18:18:56.738Z,8.10
2018-01-28T18:22:01.494Z,8.10
2018-01-28T18:25:06.478Z,8.10
2018-01-28T18:28:12.041Z,8.10
2018-01-28T18:31:17.589Z,8.10
2018-01-28T18:34:23.914Z,8.00
2018-01-28T18:37:28.865Z,8.00
2018-01-28T18:40:34.787Z,8.00
2018-01-28T18:43:41.422Z,8.10
2018-01-28T18:46:46.786Z,8.00
2018-01-28T18:49:52.408Z,8.10
2018-01-28T18:52:57.922Z,8.10
2018-01-28T18:56:03.530Z,8.10
2018-01-28T18:59:08.998Z,8.10
2018-01-28T19:02:14.552Z,8.10
2018-01-28T19:05:19.969Z,8.10
2018-01-28T19:08:25.661Z,8.10
2018-01-28T19:11:31.157Z,8.10
2018-01-28T19:14:36.686Z,8.10
2018-01-28T19:17:41.931Z,8.20
2018-01-28T19:20:47.255Z,8.20
2018-01-28T19:23:53.114Z,8.20
2018-01-28T19:26:58.093Z,8.30
2018-01-28T19:30:03.922Z,8.20
2018-01-28T19:33:09.379Z,8.30
2018-01-28T19:36:14.449Z,8.30
2018-01-28T19:39:20.772Z,8.30
2018-01-28T19:42:25.665Z,8.30
2018-01-28T19:45:31.577Z,8.30
2018-01-28T19:48:36.226Z,8.30
2018-01-28T19:51:41.822Z,8.30
2018-01-28T19:54:47.109Z,8.30
2018-01-28T19:57:52.823Z,8.30
2018-01-28T20:00:58.190Z,8.30
2018-01-28T20:04:03.333Z,8.30
2018-01-28T20:07:08.901Z,8.40
2018-01-28T20:10:14.770Z,8.40
2018-01-28T20:13:28.398Z,8.40
2018-01-28T20:16:34.522Z,8.40
2018-01-28T20:19:40.063Z,8.50
2018-01-28T20:22:45.165Z,8.40
2018-01-28T20:25:51.130Z,8.50
2018-01-28T20:28:56.617Z,8.50
2018-01-28T20:32:01.869Z,8.40
2018-01-28T20:35:07.412Z,8.30
2018-01-28T20:38:12.214Z,8.40
2018-01-28T20:41:18.425Z,8.40
2018-01-28T20:44:23.219Z,8.40
2018-01-28T20:47:29.081Z,8.30
2018-01-28T20:50:35.518Z,8.30
2018-01-28T20:53:41.969Z,8.20
2018-01-28T20:56:46.915Z,8.20
2018-01-28T20:59:52.541Z,8.20
2018-01-28T21:02:58.954Z,8.20
2018-01-28T21:06:04.701Z,8.20
2018-01-28T21:09:10.405Z,8.20
2018-01-28T21:12:16.769Z,8.20
2018-01-28T21:15:21.781Z,8.20
2018-01-28T21:18:27.313Z,8.10
2018-01-28T21:21:33.857Z,8.10
2018-01-28T21:24:39.435Z,8.10
2018-01-28T21:27:45.836Z,8.10
2018-01-28T21:30:51.353Z,8.10
2018-01-28T21:33:56.294Z,8.10
2018-01-28T21:37:02.389Z,8.10
2018-01-28T21:40:07.733Z,8.00
2018-01-28T21:43:13.362Z,8.10
2018-01-28T21:46:19.222Z,8.10
2018-01-28T21:49:25.211Z,8.10
2018-01-28T21:52:31.453Z,8.10
2018-01-28T21:55:37.097Z,8.10
2018-01-28T21:58:43.009Z,8.10
2018-01-28T22:01:49.168Z,8.10
2018-01-28T22:04:53.941Z,8.10
2018-01-28T22:07:59.217Z,8.10
2018-01-28T22:11:05.101Z,8.10
2018-01-28T22:14:10.549Z,8.10
2018-01-28T22:17:17.034Z,8.10
2018-01-28T22:20:23.374Z,8.10
2018-01-28T22:23:28.837Z,8.00
2018-01-28T22:26:34.058Z,8.10
2018-01-28T22:29:39.617Z,8.10
2018-01-28T22:32:45.209Z,8.10
2018-01-28T22:35:51.115Z,8.10
2018-01-28T22:38:56.709Z,8.00
2018-01-28T22:42:02.347Z,8.10
2018-01-28T22:45:08.134Z,8.20
2018-01-28T22:48:13.834Z,8.10
2018-01-28T22:51:19.669Z,8.20
2018-01-28T22:54:25.301Z,8.10
2018-01-28T22:57:31.741Z,8.20
2018-01-28T23:00:37.081Z,8.10
2018-01-28T23:03:42.266Z,8.20
2018-01-28T23:06:48.154Z,8.20
2018-01-28T23:09:53.332Z,8.20
2018-01-28T23:12:58.821Z,8.20
2018-01-28T23:16:04.165Z,8.20
2018-01-28T23:19:09.697Z,8.20
2018-01-28T23:22:14.466Z,8.20
2018-01-28T23:25:20.569Z,8.20
2018-01-28T23:28:26.112Z,8.20
2018-01-28T23:31:30.923Z,8.10
2018-01-28T23:34:36.581Z,8.10
2018-01-28T23:37:41.509Z,8.00
2018-01-28T23:40:46.465Z,8.10
2018-01-28T23:43:51.777Z,8.10
2018-01-28T23:46:58.262Z,8.10
2018-01-28T23:50:03.130Z,8.10
2018-01-28T23:53:08.870Z,8.10
2018-01-28T23:56:13.773Z,8.00
2018-01-28T23:59:18.920Z,8.00
